Time;durP1;ratioP1;P1;durP2;ratioP2;P2;SDS_P1;SDS_P2;PMS_P1;PMS_P2;Temp;Humidity;BMP_temperature;BMP_pressure;BME280_temperature;BME280_humidity;BME280_pressure;Samples;Min_cycle;Max_cycle;Signal;HPM_P1;HPM_P2
2024/04/05 00:01:40;;;;;;;23.02;5.07;;;11.80;99.90;;;;;;4993324;28;20300;-74
2024/04/05 00:04:07;;;;;;;16.83;4.88;;;11.80;99.90;;;;;;4986537;28;20117;-74
2024/04/05 00:06:33;;;;;;;20.90;5.03;;;11.90;99.90;;;;;;4983830;28;20030;-73
2024/04/05 00:08:59;;;;;;;16.02;3.97;;;11.90;99.90;;;;;;5010677;28;20049;-73
2024/04/05 00:11:25;;;;;;;17.88;5.38;;;11.80;99.90;;;;;;4992362;28;20034;-73
2024/04/05 00:13:51;;;;;;;27.60;5.75;;;11.90;99.90;;;;;;5003524;28;20522;-74
2024/04/05 00:16:16;;;;;;;23.70;4.68;;;11.90;99.90;;;;;;4993439;28;20022;-73
2024/04/05 00:18:45;;;;;;;19.42;4.07;;;11.80;99.90;;;;;;5010799;28;20034;-73
2024/04/05 00:21:11;;;;;;;22.05;5.38;;;11.80;99.90;;;;;;4992897;28;20087;-74
2024/04/05 00:23:39;;;;;;;15.05;4.22;;;11.80;99.90;;;;;;4992393;28;20030;-73
2024/04/05 00:26:09;;;;;;;22.88;5.05;;;11.70;99.90;;;;;;4992850;28;20022;-73
2024/04/05 00:28:36;;;;;;;25.40;5.53;;;11.70;99.90;;;;;;4992677;28;20026;-73
2024/04/05 00:31:03;;;;;;;23.48;5.13;;;11.70;99.90;;;;;;4993297;28;20568;-73
2024/04/05 00:33:29;;;;;;;18.48;4.30;;;11.60;99.90;;;;;;4992569;28;20045;-73
2024/04/05 00:35:56;;;;;;;22.45;5.18;;;11.60;99.90;;;;;;4984554;28;20036;-73
2024/04/05 00:38:23;;;;;;;27.95;5.50;;;11.60;99.90;;;;;;5010192;28;20032;-73
2024/04/05 00:40:50;;;;;;;17.50;4.72;;;11.60;99.90;;;;;;5010288;28;20025;-74
2024/04/05 00:43:18;;;;;;;23.13;4.97;;;11.50;99.90;;;;;;4992282;28;20032;-74
2024/04/05 00:45:46;;;;;;;23.38;5.03;;;11.50;99.90;;;;;;5009980;28;20031;-73
2024/04/05 00:48:17;;;;;;;34.45;5.53;;;11.50;99.90;;;;;;5010197;28;20030;-73
2024/04/05 00:50:44;;;;;;;19.38;4.88;;;11.50;99.90;;;;;;4992212;28;20104;-73
2024/04/05 00:53:15;;;;;;;16.58;4.65;;;11.40;99.90;;;;;;4991818;28;20034;-73
2024/04/05 00:55:42;;;;;;;21.52;5.05;;;11.40;99.90;;;;;;4993515;28;20026;-73
2024/04/05 00:58:09;;;;;;;20.13;4.80;;;11.40;99.90;;;;;;5012426;28;20452;-73
2024/04/05 01:00:36;;;;;;;22.67;5.85;;;11.30;99.90;;;;;;5000754;28;20025;-73
2024/04/05 01:03:02;;;;;;;18.80;4.03;;;11.30;99.90;;;;;;5020413;28;20026;-74
2024/04/05 01:05:31;;;;;;;20.48;4.90;;;11.30;99.90;;;;;;5029156;28;20072;-74
2024/04/05 01:07:57;;;;;;;23.52;5.45;;;11.30;99.90;;;;;;5029434;28;20032;-73
2024/04/05 01:10:25;;;;;;;28.88;5.65;;;11.30;99.90;;;;;;5011469;28;20033;-74
2024/04/05 01:13:02;;;;;;;18.63;4.57;;;11.30;99.90;;;;;;5011502;28;20117;-73
2024/04/05 01:15:28;;;;;;;20.75;4.63;;;11.30;99.90;;;;;;5011350;28;20508;-73
2024/04/05 01:17:55;;;;;;;11.70;3.92;;;11.20;99.90;;;;;;5011878;28;20116;-73
2024/04/05 01:20:25;;;;;;;15.25;4.75;;;11.20;99.90;;;;;;5003575;28;20053;-73
2024/04/05 01:22:56;;;;;;;21.35;5.72;;;11.20;99.90;;;;;;5003871;28;20021;-73
2024/04/05 01:25:23;;;;;;;20.10;5.00;;;11.10;99.90;;;;;;5021030;28;20121;-73
2024/04/05 01:27:49;;;;;;;20.27;5.03;;;11.10;99.90;;;;;;5021355;28;20018;-73
2024/04/05 01:30:18;;;;;;;16.40;4.90;;;11.10;99.90;;;;;;5029770;28;20043;-73
2024/04/05 01:32:55;;;;;;;20.27;4.75;;;11.10;99.90;;;;;;5011932;28;20033;-73
2024/04/05 01:35:36;;;;;;;24.02;4.82;;;11.00;99.90;;;;;;5012127;28;20024;-74
2024/04/05 01:38:07;;;;;;;21.17;5.00;;;11.00;99.90;;;;;;5011846;28;20122;-74
2024/04/05 01:40:33;;;;;;;18.13;4.95;;;11.00;99.90;;;;;;5029320;28;20033;-74
2024/04/05 01:43:02;;;;;;;15.48;4.25;;;11.00;99.90;;;;;;5003513;28;20088;-74
2024/04/05 01:45:30;;;;;;;20.17;5.07;;;11.00;99.90;;;;;;5028896;28;20474;-73
2024/04/05 01:47:59;;;;;;;20.67;4.82;;;11.00;99.90;;;;;;5012208;28;20140;-73
2024/04/05 01:50:27;;;;;;;17.35;4.10;;;11.00;99.90;;;;;;5030030;28;20030;-73
2024/04/05 01:52:52;;;;;;;15.15;4.10;;;11.00;99.90;;;;;;5011684;28;20505;-74
2024/04/05 01:55:21;;;;;;;19.05;4.35;;;11.00;99.90;;;;;;5029944;28;20078;-74
2024/04/05 01:57:50;;;;;;;13.88;4.00;;;11.00;99.90;;;;;;5009941;28;20069;-73
2024/04/05 02:00:16;;;;;;;21.85;3.85;;;11.00;99.90;;;;;;4993722;28;20061;-74
2024/04/05 02:02:42;;;;;;;16.55;3.80;;;11.00;99.90;;;;;;5029609;28;20119;-74
2024/04/05 02:05:11;;;;;;;18.55;4.43;;;11.00;99.90;;;;;;5031026;28;20026;-73
2024/04/05 02:07:37;;;;;;;16.98;3.85;;;11.00;99.90;;;;;;5030876;28;20025;-74
2024/04/05 02:10:03;;;;;;;19.65;4.15;;;10.90;99.90;;;;;;5013210;28;20112;-73
2024/04/05 02:12:34;;;;;;;19.88;3.45;;;10.90;99.90;;;;;;5014075;28;20465;-73
2024/04/05 02:15:00;;;;;;;24.00;4.40;;;10.90;99.90;;;;;;5022730;28;20038;-73
2024/04/05 02:17:29;;;;;;;16.83;4.05;;;10.90;99.90;;;;;;5031206;28;20084;-74
2024/04/05 02:19:55;;;;;;;20.10;4.13;;;10.90;99.90;;;;;;5019094;28;20049;-74
2024/04/05 02:22:21;;;;;;;21.95;4.65;;;10.90;99.90;;;;;;5027469;28;20065;-73
2024/04/05 02:24:50;;;;;;;26.65;4.22;;;10.90;99.90;;;;;;5030894;28;20029;-74
2024/04/05 02:27:18;;;;;;;12.43;3.53;;;10.90;99.90;;;;;;5007208;28;20089;-73
2024/04/05 02:29:47;;;;;;;18.40;3.67;;;10.90;99.90;;;;;;5021873;28;20095;-73
2024/04/05 02:32:12;;;;;;;14.88;4.30;;;10.90;99.90;;;;;;5030721;28;20030;-74
2024/04/05 02:34:39;;;;;;;12.48;3.22;;;10.80;99.90;;;;;;5029599;28;20052;-75
2024/04/05 02:37:05;;;;;;;17.98;3.90;;;10.80;99.90;;;;;;5008025;28;20026;-74
2024/04/05 02:39:31;;;;;;;13.15;2.95;;;10.80;99.90;;;;;;5031883;28;20052;-74
2024/04/05 02:41:57;;;;;;;16.23;5.10;;;10.80;99.90;;;;;;5032132;28;20466;-73
2024/04/05 02:44:25;;;;;;;19.08;3.92;;;10.80;99.90;;;;;;5031574;28;20017;-74
2024/04/05 02:46:50;;;;;;;17.42;4.07;;;10.80;99.90;;;;;;5013940;28;20025;-73
2024/04/05 02:49:16;;;;;;;15.90;3.70;;;10.70;99.90;;;;;;5006192;28;20033;-74
2024/04/05 02:51:42;;;;;;;10.85;3.83;;;10.70;99.90;;;;;;5031838;28;20087;-74
2024/04/05 02:54:08;;;;;;;14.70;3.63;;;10.70;99.90;;;;;;5031748;28;20076;-74
2024/04/05 02:56:34;;;;;;;24.88;3.92;;;10.70;99.90;;;;;;5013924;28;20508;-74
2024/04/05 02:59:01;;;;;;;24.75;4.25;;;10.70;99.90;;;;;;5001572;28;20121;-74
2024/04/05 03:01:35;;;;;;;16.77;3.75;;;10.70;99.90;;;;;;5003708;28;20022;-74
2024/04/05 03:04:02;;;;;;;17.20;3.92;;;10.70;99.90;;;;;;4995530;28;20025;-74
2024/04/05 03:06:28;;;;;;;22.23;5.30;;;10.60;99.90;;;;;;5022421;28;20014;-74
2024/04/05 03:08:53;;;;;;;21.98;4.13;;;10.60;99.90;;;;;;5005798;28;20111;-74
2024/04/05 03:11:22;;;;;;;25.58;5.20;;;10.60;99.90;;;;;;5031624;28;20369;-74
2024/04/05 03:13:50;;;;;;;16.83;3.80;;;10.60;99.90;;;;;;5002714;28;20390;-74
2024/04/05 03:16:18;;;;;;;17.13;4.18;;;10.60;99.90;;;;;;5013535;28;20075;-74
2024/04/05 03:18:44;;;;;;;18.85;4.72;;;10.60;99.90;;;;;;5031502;28;20021;-74
2024/04/05 03:21:10;;;;;;;21.38;4.90;;;10.60;99.90;;;;;;5031620;28;20040;-74
2024/04/05 03:23:36;;;;;;;24.35;4.60;;;10.60;99.90;;;;;;5030053;28;20095;-74
2024/04/05 03:26:02;;;;;;;22.13;5.22;;;10.50;99.90;;;;;;5013481;28;20406;-74
2024/04/05 03:28:31;;;;;;;17.85;5.38;;;10.60;99.90;;;;;;5031154;28;20032;-73
2024/04/05 03:30:57;;;;;;;20.75;5.13;;;10.60;99.90;;;;;;5004911;28;20483;-74
2024/04/05 03:33:23;;;;;;;18.35;5.55;;;10.60;99.90;;;;;;5012559;28;20497;-74
2024/04/05 03:35:48;;;;;;;25.05;5.40;;;10.50;99.90;;;;;;5003180;28;20029;-74
2024/04/05 03:38:14;;;;;;;23.80;5.68;;;10.50;99.90;;;;;;5019345;28;20006;-74
2024/04/05 03:40:41;;;;;;;15.23;5.68;;;10.60;99.90;;;;;;5003688;28;20457;-73
2024/04/05 03:43:07;;;;;;;11.40;4.55;;;10.60;99.90;;;;;;5006247;28;20025;-73
2024/04/05 03:45:33;;;;;;;24.27;4.32;;;10.60;99.90;;;;;;5008766;28;20049;-74
2024/04/05 03:47:59;;;;;;;22.13;4.85;;;10.60;99.90;;;;;;5007382;28;20033;-74
2024/04/05 03:50:25;;;;;;;21.05;4.47;;;10.60;99.90;;;;;;5023019;28;20032;-74
2024/04/05 03:52:51;;;;;;;21.80;5.13;;;10.70;99.90;;;;;;5008645;28;20106;-74
2024/04/05 03:55:17;;;;;;;15.60;4.05;;;10.70;99.90;;;;;;5012663;28;20039;-74
2024/04/05 03:57:47;;;;;;;22.27;4.47;;;10.70;99.90;;;;;;5018935;28;20538;-75
2024/04/05 04:00:13;;;;;;;21.17;4.80;;;10.70;99.90;;;;;;5002958;28;20022;-74
2024/04/05 04:02:39;;;;;;;18.38;4.05;;;10.70;99.90;;;;;;5019482;28;20017;-74
2024/04/05 04:05:05;;;;;;;19.80;4.68;;;10.70;99.90;;;;;;5024720;28;20021;-74
2024/04/05 04:07:30;;;;;;;23.60;5.57;;;10.70;99.90;;;;;;5032630;28;20080;-74
2024/04/05 04:09:56;;;;;;;15.63;4.40;;;10.70;99.90;;;;;;5032227;28;20387;-74
2024/04/05 04:12:22;;;;;;;25.77;4.90;;;10.70;99.90;;;;;;5014628;28;20450;-74
2024/04/05 04:14:48;;;;;;;16.33;4.32;;;10.70;99.90;;;;;;5014247;28;20021;-73
2024/04/05 04:17:19;;;;;;;17.92;3.88;;;10.70;99.90;;;;;;5014490;28;20014;-73
2024/04/05 04:19:46;;;;;;;16.80;5.00;;;10.70;99.90;;;;;;5024153;28;20018;-73
2024/04/05 04:22:14;;;;;;;19.95;6.57;;;10.80;99.90;;;;;;5014592;28;20076;-73
2024/04/05 04:24:43;;;;;;;15.93;4.55;;;10.80;99.90;;;;;;5023231;28;20491;-74
2024/04/05 04:27:10;;;;;;;21.40;4.50;;;10.80;99.90;;;;;;5006484;28;20044;-72
2024/04/05 04:29:39;;;;;;;23.38;4.10;;;10.90;99.90;;;;;;5024479;28;20061;-73
2024/04/05 04:32:05;;;;;;;15.32;4.40;;;10.90;99.90;;;;;;4999241;28;20021;-73
2024/04/05 04:34:32;;;;;;;22.67;5.00;;;10.90;99.90;;;;;;5031970;28;20032;-73
2024/04/05 04:37:01;;;;;;;27.67;5.47;;;10.90;99.90;;;;;;5006655;28;20041;-73
2024/04/05 04:39:26;;;;;;;22.23;4.70;;;11.00;99.90;;;;;;5032280;28;20025;-72
2024/04/05 04:41:55;;;;;;;26.15;5.00;;;11.00;99.90;;;;;;5031741;28;20091;-73
2024/04/05 04:44:24;;;;;;;13.85;3.75;;;11.00;99.90;;;;;;5031742;28;20140;-73
2024/04/05 04:46:50;;;;;;;22.83;5.05;;;11.00;99.90;;;;;;5031692;28;20436;-73
2024/04/05 04:49:18;;;;;;;17.88;5.07;;;11.00;99.90;;;;;;5031593;28;20056;-73
2024/04/05 04:51:44;;;;;;;23.52;4.93;;;11.00;99.90;;;;;;5032007;28;20076;-73
2024/04/05 04:54:13;;;;;;;20.60;4.45;;;11.10;99.90;;;;;;5013694;28;20022;-73
2024/04/05 04:56:39;;;;;;;15.23;3.78;;;11.10;99.90;;;;;;5013863;28;20072;-72
2024/04/05 04:59:08;;;;;;;14.93;4.45;;;11.10;99.90;;;;;;5013876;28;20682;-73
2024/04/05 05:01:35;;;;;;;17.70;4.68;;;11.20;99.90;;;;;;5031672;28;20029;-73
2024/04/05 05:04:03;;;;;;;17.17;4.88;;;11.20;99.90;;;;;;5031036;28;20055;-73
2024/04/05 05:06:32;;;;;;;16.52;4.47;;;11.20;99.90;;;;;;5024148;28;20038;-73
2024/04/05 05:08:58;;;;;;;21.27;4.93;;;11.20;99.90;;;;;;5004295;28;20066;-73
2024/04/05 05:11:26;;;;;;;23.50;5.15;;;11.20;99.90;;;;;;5006695;28;20168;-73
2024/04/05 05:13:52;;;;;;;23.13;4.65;;;11.20;99.90;;;;;;5028625;28;20108;-72
2024/04/05 05:16:18;;;;;;;20.33;4.38;;;11.20;99.90;;;;;;5012970;28;20448;-73
2024/04/05 05:18:44;;;;;;;25.33;5.00;;;11.30;99.90;;;;;;5012498;28;20397;-73
2024/04/05 05:21:10;;;;;;;22.80;5.50;;;11.20;99.90;;;;;;5030627;28;20017;-73
2024/04/05 05:23:35;;;;;;;20.63;4.55;;;11.30;99.90;;;;;;5030216;28;20021;-73
2024/04/05 05:26:03;;;;;;;13.98;3.97;;;11.30;99.90;;;;;;5031797;28;20029;-73
2024/04/05 05:28:29;;;;;;;24.13;4.47;;;11.30;99.90;;;;;;5027199;28;20025;-73
2024/04/05 05:30:54;;;;;;;18.05;4.88;;;11.30;99.90;;;;;;5009423;28;20401;-74
2024/04/05 05:33:20;;;;;;;16.45;4.05;;;11.30;99.90;;;;;;5021286;28;20033;-73
2024/04/05 05:35:46;;;;;;;18.50;3.95;;;11.30;99.90;;;;;;5009544;28;20022;-73
2024/04/05 05:38:11;;;;;;;19.20;4.25;;;11.40;99.90;;;;;;5002938;28;20403;-73
2024/04/05 05:40:37;;;;;;;17.38;4.00;;;11.40;99.90;;;;;;5024498;28;20021;-73
2024/04/05 05:43:02;;;;;;;23.55;5.20;;;11.40;99.90;;;;;;5009658;28;20018;-73
2024/04/05 05:45:28;;;;;;;16.05;4.15;;;11.50;99.90;;;;;;5011589;28;20459;-79
2024/04/05 05:47:56;;;;;;;19.70;3.88;;;11.50;99.90;;;;;;5008259;28;20057;-79
2024/04/05 05:50:23;;;;;;;16.88;4.20;;;11.60;99.90;;;;;;4997527;28;20092;-79
2024/04/05 05:52:49;;;;;;;16.75;4.18;;;11.60;99.90;;;;;;5021566;28;20025;-73
2024/04/05 05:55:15;;;;;;;14.32;3.70;;;11.60;99.90;;;;;;5026830;28;20044;-74
2024/04/05 05:57:41;;;;;;;19.98;3.80;;;11.70;99.90;;;;;;5015557;28;20159;-74
2024/04/05 06:00:09;;;;;;;22.75;5.53;;;11.70;99.90;;;;;;5010163;28;20024;-74
2024/04/05 06:02:39;;;;;;;16.42;3.85;;;11.80;99.90;;;;;;5002212;28;20399;-73
2024/04/05 06:05:06;;;;;;;17.70;5.05;;;11.80;99.90;;;;;;5009569;28;20029;-74
2024/04/05 06:07:32;;;;;;;20.95;4.30;;;11.90;99.90;;;;;;5010579;28;20037;-74
2024/04/05 06:09:59;;;;;;;20.02;4.47;;;11.90;99.90;;;;;;5010313;28;20260;-73
2024/04/05 06:12:25;;;;;;;23.27;4.63;;;11.90;99.90;;;;;;5002265;28;20501;-74
2024/04/05 06:14:55;;;;;;;16.02;3.78;;;11.90;99.90;;;;;;5023365;28;20022;-79
2024/04/05 06:17:25;;;;;;;15.55;3.33;;;12.00;99.90;;;;;;5004999;28;20053;-79
2024/04/05 06:19:57;;;;;;;19.80;4.57;;;12.00;99.90;;;;;;5004329;28;20050;-79
2024/04/05 06:22:27;;;;;;;15.68;3.42;;;12.10;99.90;;;;;;5020285;28;20030;-79
2024/04/05 06:24:55;;;;;;;20.20;4.18;;;12.10;99.90;;;;;;5020639;28;20033;-79
2024/04/05 06:27:21;;;;;;;18.05;3.45;;;12.10;99.90;;;;;;4984389;28;20120;-74
2024/04/05 06:29:50;;;;;;;15.23;3.67;;;12.10;99.90;;;;;;5013009;28;20087;-74
2024/04/05 06:32:17;;;;;;;10.68;2.95;;;12.20;99.90;;;;;;4990067;28;20103;-74
2024/04/05 06:34:44;;;;;;;14.35;3.33;;;12.20;99.90;;;;;;5012936;28;20022;-74
2024/04/05 06:37:11;;;;;;;17.08;2.75;;;12.30;99.90;;;;;;5001917;28;20026;-73
2024/04/05 06:39:40;;;;;;;8.88;2.60;;;12.30;99.90;;;;;;4993936;28;20117;-74
2024/04/05 06:42:09;;;;;;;17.80;3.05;;;12.40;99.90;;;;;;5021968;28;20021;-75
2024/04/05 06:44:35;;;;;;;9.90;3.42;;;12.50;99.90;;;;;;5011989;28;20029;-74
2024/04/05 06:47:10;;;;;;;11.38;3.05;;;12.50;99.90;;;;;;5018033;28;20104;-74
2024/04/05 06:49:37;;;;;;;19.77;3.38;;;12.60;99.90;;;;;;5001189;28;20183;-74
2024/04/05 06:52:10;;;;;;;14.55;3.38;;;12.60;99.90;;;;;;5009318;28;20045;-74
2024/04/05 06:54:49;;;;;;;16.63;3.13;;;12.70;99.90;;;;;;5027898;28;20120;-73
2024/04/05 06:57:15;;;;;;;13.25;3.25;;;12.80;99.90;;;;;;5013607;28;20057;-74
2024/04/05 06:59:43;;;;;;;9.75;3.25;;;12.90;99.90;;;;;;5030250;28;20091;-74
2024/04/05 07:02:12;;;;;;;9.25;2.95;;;13.00;99.90;;;;;;5014035;28;20148;-74
2024/04/05 07:04:41;;;;;;;20.23;3.90;;;13.20;99.90;;;;;;5024452;28;20177;-73
2024/04/05 07:07:07;;;;;;;9.95;2.65;;;13.20;99.90;;;;;;5010836;28;20083;-74
2024/04/05 07:09:32;;;;;;;18.58;4.32;;;13.30;99.90;;;;;;5026650;28;20472;-74
2024/04/05 07:12:04;;;;;;;15.27;2.83;;;13.30;99.90;;;;;;5013881;28;20055;-73
2024/04/05 07:14:30;;;;;;;8.95;2.92;;;13.30;99.90;;;;;;5031619;28;20421;-74
2024/04/05 07:17:01;;;;;;;13.50;3.28;;;13.40;99.90;;;;;;5012586;28;20025;-74
2024/04/05 07:19:27;;;;;;;15.50;3.22;;;13.50;99.90;;;;;;4999401;28;20044;-73
2024/04/05 07:21:53;;;;;;;16.60;3.53;;;13.60;99.90;;;;;;5013195;28;20029;-74
2024/04/05 07:24:24;;;;;;;15.23;3.00;;;13.60;99.90;;;;;;5008526;28;20034;-74
2024/04/05 07:26:50;;;;;;;19.65;4.13;;;13.70;99.90;;;;;;5028040;28;20025;-74
2024/04/05 07:29:16;;;;;;;13.50;3.20;;;13.70;99.90;;;;;;5009688;28;20033;-74
2024/04/05 07:31:42;;;;;;;13.60;3.95;;;13.70;99.90;;;;;;5027322;28;20021;-74
2024/04/05 07:34:08;;;;;;;16.60;3.72;;;13.90;99.90;;;;;;5013001;28;20021;-73
2024/04/05 07:36:34;;;;;;;17.60;3.88;;;14.00;99.90;;;;;;5007184;28;20018;-74
2024/04/05 07:39:03;;;;;;;13.27;3.08;;;14.10;99.90;;;;;;5004304;28;20184;-73
2024/04/05 07:41:28;;;;;;;10.40;3.08;;;14.10;99.90;;;;;;5032911;28;20056;-74
2024/04/05 07:43:54;;;;;;;18.70;3.40;;;14.20;99.90;;;;;;5013953;28;20411;-74
2024/04/05 07:46:20;;;;;;;15.20;3.40;;;14.20;99.90;;;;;;5014504;28;20033;-75
2024/04/05 07:48:46;;;;;;;16.35;3.33;;;14.20;99.90;;;;;;5013261;28;20262;-74
2024/04/05 07:51:12;;;;;;;11.30;2.75;;;14.30;99.90;;;;;;5005308;28;20108;-74
2024/04/05 07:53:39;;;;;;;10.93;2.63;;;14.30;99.90;;;;;;5015706;28;20521;-74
2024/04/05 07:56:05;;;;;;;9.30;3.63;;;14.40;99.90;;;;;;5011433;28;20025;-75
2024/04/05 07:58:33;;;;;;;12.35;3.30;;;14.40;99.90;;;;;;5030727;28;20487;-74
2024/04/05 08:00:59;;;;;;;13.85;3.13;;;14.50;99.90;;;;;;5012741;28;20474;-74
2024/04/05 08:03:28;;;;;;;10.23;3.10;;;14.60;99.90;;;;;;5030275;28;20108;-74
2024/04/05 08:05:54;;;;;;;12.60;3.05;;;14.80;99.90;;;;;;5030577;28;20029;-74
2024/04/05 08:08:20;;;;;;;8.68;2.80;;;14.80;99.90;;;;;;5012832;28;20028;-74
2024/04/05 08:10:45;;;;;;;16.42;3.53;;;14.80;99.90;;;;;;4996739;28;20045;-74
2024/04/05 08:13:11;;;;;;;16.65;3.33;;;14.90;99.90;;;;;;5018714;28;20022;-74
2024/04/05 08:15:37;;;;;;;11.70;2.83;;;15.00;99.90;;;;;;5024746;28;20491;-74
2024/04/05 08:18:03;;;;;;;10.45;2.72;;;15.40;99.90;;;;;;5020379;28;20021;-74
2024/04/05 08:20:29;;;;;;;9.50;2.72;;;15.60;99.90;;;;;;5000972;28;20507;-74
2024/04/05 08:22:55;;;;;;;13.27;3.38;;;16.00;99.90;;;;;;5018710;28;20021;-74
2024/04/05 08:25:24;;;;;;;12.55;3.97;;;16.20;99.90;;;;;;5011796;28;20060;-74
2024/04/05 08:27:50;;;;;;;10.75;3.47;;;16.10;99.90;;;;;;5022257;28;20372;-74
2024/04/05 08:30:18;;;;;;;17.30;3.78;;;16.00;99.90;;;;;;4992732;28;20028;-74
2024/04/05 08:32:44;;;;;;;13.60;3.78;;;16.00;99.90;;;;;;5007616;28;20049;-73
2024/04/05 08:35:10;;;;;;;16.08;3.47;;;15.80;99.90;;;;;;5011776;28;20516;-74
2024/04/05 08:37:36;;;;;;;12.38;4.20;;;15.70;99.90;;;;;;5022406;28;20108;-74
2024/04/05 08:40:03;;;;;;;20.35;4.18;;;15.60;99.90;;;;;;5015262;28;20429;-74
2024/04/05 08:42:32;;;;;;;12.60;3.60;;;15.50;99.90;;;;;;5013657;28;20018;-74
2024/04/05 08:44:57;;;;;;;11.40;3.00;;;15.40;99.90;;;;;;5018827;28;20178;-75
2024/04/05 08:47:25;;;;;;;15.73;3.65;;;15.30;99.90;;;;;;4998574;28;20055;-74
2024/04/05 08:49:52;;;;;;;17.77;3.65;;;15.20;99.90;;;;;;4994308;28;20061;-74
2024/04/05 08:52:18;;;;;;;11.35;4.03;;;15.00;99.90;;;;;;5013991;28;20033;-74
2024/04/05 08:54:44;;;;;;;12.90;3.28;;;14.90;99.90;;;;;;4994104;28;20025;-74
2024/04/05 08:57:11;;;;;;;10.70;3.85;;;15.00;99.90;;;;;;4996210;28;20014;-74
2024/04/05 08:59:37;;;;;;;13.68;3.33;;;15.00;99.90;;;;;;5006287;28;20104;-74
2024/04/05 09:02:04;;;;;;;11.35;3.63;;;15.20;99.90;;;;;;5011732;28;20175;-74
2024/04/05 09:04:30;;;;;;;12.10;3.50;;;15.30;99.90;;;;;;5009721;28;20029;-74
2024/04/05 09:06:56;;;;;;;13.88;4.15;;;15.50;99.90;;;;;;4995404;28;20032;-75
2024/04/05 09:09:30;;;;;;;9.32;3.35;;;15.90;99.90;;;;;;5013676;28;20021;-74
2024/04/05 09:12:09;;;;;;;9.82;3.00;;;16.20;99.90;;;;;;5011628;28;20021;-74
2024/04/05 09:14:38;;;;;;;13.25;3.67;;;16.40;99.90;;;;;;5028990;28;20184;-74
2024/04/05 09:17:16;;;;;;;12.88;3.78;;;16.30;99.90;;;;;;5029228;28;20183;-75
2024/04/05 09:19:46;;;;;;;12.73;3.78;;;16.50;99.90;;;;;;5029714;28;20018;-75
2024/04/05 09:22:29;;;;;;;13.07;4.28;;;16.60;99.90;;;;;;5020578;28;20028;-75
2024/04/05 09:25:06;;;;;;;12.98;4.35;;;16.70;99.90;;;;;;5028834;28;20068;-75
2024/04/05 09:27:32;;;;;;;8.07;4.13;;;16.80;99.90;;;;;;5029949;28;20027;-76
2024/04/05 09:30:04;;;;;;;11.02;3.53;;;16.70;99.90;;;;;;5012024;28;20065;-75
2024/04/05 09:32:30;;;;;;;13.63;4.45;;;16.70;99.90;;;;;;5005090;28;20028;-75
2024/04/05 09:34:57;;;;;;;13.45;3.33;;;16.50;99.90;;;;;;5011264;28;20390;-74
2024/04/05 09:37:26;;;;;;;13.07;3.60;;;16.20;99.90;;;;;;5003467;28;20029;-74
2024/04/05 09:39:53;;;;;;;8.75;2.85;;;16.60;99.90;;;;;;5029167;28;20554;-74
2024/04/05 09:42:22;;;;;;;16.13;3.53;;;17.00;99.90;;;;;;5011152;28;20475;-75
2024/04/05 09:44:58;;;;;;;9.30;3.38;;;17.10;99.90;;;;;;5028467;28;20022;-75
2024/04/05 09:47:26;;;;;;;8.50;2.63;;;17.00;99.90;;;;;;5030117;28;20510;-75
2024/04/05 09:49:52;;;;;;;6.70;2.38;;;17.30;99.90;;;;;;5003584;28;20056;-75
2024/04/05 09:52:24;;;;;;;11.38;3.13;;;17.90;99.90;;;;;;5011479;28;20030;-75
2024/04/05 09:54:56;;;;;;;7.55;2.65;;;18.00;99.90;;;;;;5028950;28;20406;-74
2024/04/05 09:57:21;;;;;;;9.10;2.80;;;19.20;99.90;;;;;;5028987;28;20432;-74
2024/04/05 09:59:49;;;;;;;7.63;2.75;;;20.50;99.90;;;;;;5029429;28;20092;-75
2024/04/05 10:02:18;;;;;;;7.03;2.40;;;20.40;99.90;;;;;;5028925;28;20028;-75
2024/04/05 10:04:44;;;;;;;4.30;1.88;;;20.30;99.90;;;;;;5002752;28;20017;-75
2024/04/05 10:07:11;;;;;;;7.10;2.08;;;21.00;99.90;;;;;;5029220;28;20029;-75
2024/04/05 10:09:38;;;;;;;4.97;2.15;;;21.40;99.60;;;;;;5029306;28;20072;-75
2024/04/05 10:12:17;;;;;;;7.68;2.30;;;21.60;99.80;;;;;;5029003;28;20049;-74
2024/04/05 10:14:53;;;;;;;8.40;2.50;;;21.40;99.40;;;;;;5022481;28;20032;-75
2024/04/05 10:17:26;;;;;;;11.50;2.65;;;20.80;99.50;;;;;;5010337;28;20026;-74
2024/04/05 10:20:03;;;;;;;7.45;2.50;;;20.40;99.90;;;;;;5029230;28;20037;-75
2024/04/05 10:22:29;;;;;;;6.75;2.28;;;19.90;99.90;;;;;;5014608;28;20021;-74
2024/04/05 10:24:55;;;;;;;7.60;2.28;;;19.50;99.90;;;;;;5028504;28;20057;-74
2024/04/05 10:27:26;;;;;;;6.47;2.15;;;19.20;99.90;;;;;;5010812;28;20021;-75
2024/04/05 10:30:08;;;;;;;7.25;1.83;;;19.00;99.90;;;;;;5021069;28;20061;-75
2024/04/05 10:32:34;;;;;;;5.88;2.33;;;18.70;99.90;;;;;;4997319;28;20026;-74
2024/04/05 10:35:11;;;;;;;8.60;2.20;;;18.70;99.90;;;;;;5006348;28;20099;-75
2024/04/05 10:37:41;;;;;;;4.85;2.00;;;18.30;99.90;;;;;;5019901;28;20093;-74
2024/04/05 10:40:13;;;;;;;5.55;1.70;;;18.10;99.90;;;;;;5016384;28;20178;-74
2024/04/05 10:42:40;;;;;;;7.38;2.00;;;17.80;99.90;;;;;;5014416;28;20026;-75
2024/04/05 10:45:07;;;;;;;5.22;1.83;;;17.40;99.90;;;;;;5031247;28;20021;-75
2024/04/05 10:47:35;;;;;;;6.53;2.13;;;17.20;99.90;;;;;;4995149;28;20384;-74
2024/04/05 10:50:08;;;;;;;6.05;1.60;;;17.30;99.90;;;;;;5011199;28;20033;-74
2024/04/05 10:52:36;;;;;;;4.63;1.90;;;17.20;99.90;;;;;;5033103;28;20337;-74
2024/04/05 10:55:09;;;;;;;7.88;1.77;;;17.10;99.90;;;;;;5032013;28;20026;-75
2024/04/05 10:57:37;;;;;;;4.25;1.85;;;17.00;99.90;;;;;;5010380;28;20068;-74
2024/04/05 11:00:04;;;;;;;6.90;1.83;;;16.90;99.90;;;;;;5011207;28;20438;-74
2024/04/05 11:02:29;;;;;;;6.72;1.58;;;17.00;99.90;;;;;;5032628;28;20013;-74
2024/04/05 11:05:14;;;;;;;7.22;2.17;;;16.90;99.90;;;;;;5031780;28;20513;-74
2024/04/05 11:07:44;;;;;;;9.23;2.40;;;16.80;99.90;;;;;;4996378;28;20022;-75
2024/04/05 11:10:18;;;;;;;9.15;2.25;;;16.70;99.90;;;;;;5011426;28;20041;-74
2024/04/05 11:12:44;;;;;;;5.80;1.92;;;16.70;99.90;;;;;;5031676;28;20036;-74
2024/04/05 11:15:11;;;;;;;6.07;1.70;;;16.70;99.90;;;;;;5031095;28;20036;-75
2024/04/05 11:17:37;;;;;;;5.45;2.25;;;16.70;99.90;;;;;;5031506;28;20021;-75
2024/04/05 11:20:13;;;;;;;5.65;2.05;;;16.80;99.90;;;;;;5013316;28;20482;-74
2024/04/05 11:22:45;;;;;;;8.88;2.28;;;16.70;99.90;;;;;;5013449;28;20025;-74
2024/04/05 11:25:22;;;;;;;5.32;1.83;;;16.70;99.90;;;;;;5030749;28;20033;-74
2024/04/05 11:27:51;;;;;;;6.55;2.00;;;16.70;99.90;;;;;;5031412;28;20439;-75
2024/04/05 11:30:16;;;;;;;10.23;2.13;;;16.80;99.90;;;;;;5023129;28;20033;-74
2024/04/05 11:32:43;;;;;;;7.38;2.13;;;16.90;99.90;;;;;;5031262;28;20028;-74
2024/04/05 11:35:13;;;;;;;4.03;1.85;;;17.10;99.90;;;;;;5030904;28;20026;-74
2024/04/05 11:37:40;;;;;;;7.50;2.20;;;17.20;99.90;;;;;;5031277;28;20387;-74
2024/04/05 11:40:09;;;;;;;5.05;1.85;;;17.40;99.90;;;;;;5030879;28;20116;-75
2024/04/05 11:42:36;;;;;;;5.15;2.10;;;17.60;99.90;;;;;;5012939;28;20025;-75
2024/04/05 11:45:02;;;;;;;4.30;1.92;;;17.70;99.90;;;;;;5012265;28;20041;-75
2024/04/05 11:47:28;;;;;;;7.47;2.30;;;17.80;99.90;;;;;;5030867;28;20052;-74
2024/04/05 11:49:54;;;;;;;4.50;1.80;;;17.80;99.90;;;;;;5013602;28;20129;-74
2024/04/05 11:52:21;;;;;;;9.88;2.70;;;17.80;99.90;;;;;;5005007;28;20215;-74
2024/04/05 11:54:49;;;;;;;7.07;2.28;;;17.80;99.90;;;;;;5012724;28;20031;-74
2024/04/05 11:57:16;;;;;;;9.77;2.45;;;18.00;99.90;;;;;;5013239;28;20028;-75
2024/04/05 11:59:45;;;;;;;7.80;2.40;;;18.00;99.90;;;;;;5013518;28;20018;-74
2024/04/05 12:02:14;;;;;;;8.75;2.30;;;18.30;99.90;;;;;;5013326;28;20474;-74
2024/04/05 12:04:40;;;;;;;5.40;1.70;;;18.30;99.90;;;;;;5031149;28;20288;-75
2024/04/05 12:07:12;;;;;;;5.65;1.48;;;18.30;99.90;;;;;;5014072;28;20437;-74
2024/04/05 12:09:37;;;;;;;5.38;2.10;;;18.30;99.90;;;;;;5009398;28;20025;-74
2024/04/05 12:12:06;;;;;;;3.97;1.70;;;18.30;99.90;;;;;;5031944;28;20031;-74
2024/04/05 12:14:33;;;;;;;4.00;1.50;;;18.20;99.90;;;;;;5014966;28;20029;-74
2024/04/05 12:17:03;;;;;;;4.95;1.75;;;18.20;99.90;;;;;;5023382;28;20022;-74
2024/04/05 12:19:28;;;;;;;7.20;2.50;;;18.20;99.90;;;;;;5013126;28;20502;-75
2024/04/05 12:21:55;;;;;;;4.55;1.75;;;18.20;99.90;;;;;;5030978;28;20025;-74
2024/04/05 12:24:21;;;;;;;3.72;2.47;;;18.40;99.90;;;;;;5012708;28;20076;-74
2024/04/05 12:26:54;;;;;;;10.18;2.35;;;18.30;99.90;;;;;;5013421;28;20049;-75
2024/04/05 12:29:19;;;;;;;4.72;2.28;;;18.30;99.90;;;;;;5029355;28;20198;-74
2024/04/05 12:31:46;;;;;;;5.15;1.85;;;18.20;99.90;;;;;;4998902;28;20482;-74
2024/04/05 12:34:14;;;;;;;9.57;2.30;;;18.20;99.90;;;;;;5021879;28;20160;-74
2024/04/05 12:36:43;;;;;;;5.78;1.92;;;18.10;99.90;;;;;;5012619;28;20394;-74
2024/04/05 12:39:24;;;;;;;5.95;2.05;;;18.10;99.90;;;;;;5004426;28;20025;-74
2024/04/05 12:41:50;;;;;;;4.55;1.90;;;18.10;99.90;;;;;;5029712;28;20176;-74
2024/04/05 12:44:15;;;;;;;7.03;2.13;;;18.10;99.90;;;;;;5011362;28;20193;-74